createdAt,value
2022-09-10T00:01:55.703Z,100.00
2022-09-10T00:04:22.130Z,100.00
2022-09-10T00:06:48.670Z,100.00
2022-09-10T00:09:15.111Z,100.00
2022-09-10T00:11:41.975Z,100.00
2022-09-10T00:14:10.370Z,100.00
2022-09-10T00:16:36.867Z,100.00
2022-09-10T00:19:03.704Z,100.00
2022-09-10T00:21:30.200Z,100.00
2022-09-10T00:23:57.067Z,100.00
2022-09-10T00:26:24.709Z,100.00
2022-09-10T00:28:52.310Z,100.00
2022-09-10T00:31:19.500Z,100.00
2022-09-10T00:33:46.043Z,100.00
2022-09-10T00:36:24.146Z,100.00
2022-09-10T00:38:53.331Z,100.00
2022-09-10T00:41:20.786Z,100.00
2022-09-10T00:43:48.975Z,100.00
2022-09-10T00:46:27.205Z,100.00
2022-09-10T00:48:56.512Z,100.00
2022-09-10T00:51:23.885Z,100.00
2022-09-10T00:53:51.599Z,100.00
2022-09-10T00:56:18.197Z,100.00
2022-09-10T00:58:46.214Z,100.00
2022-09-10T01:01:13.482Z,100.00
2022-09-10T01:03:41.110Z,100.00
2022-09-10T01:06:07.755Z,100.00
2022-09-10T01:08:34.336Z,100.00
2022-09-10T01:11:11.274Z,100.00
2022-09-10T01:13:43.610Z,100.00
2022-09-10T01:16:16.672Z,100.00
2022-09-10T01:18:46.050Z,100.00
2022-09-10T01:21:20.078Z,100.00
2022-09-10T01:24:05.121Z,100.00
2022-09-10T01:26:58.929Z,100.00
2022-09-10T01:29:25.396Z,100.00
2022-09-10T01:31:55.543Z,100.00
2022-09-10T01:34:27.084Z,100.00
2022-09-10T01:36:56.242Z,100.00
2022-09-10T01:39:24.004Z,100.00
2022-09-10T01:41:53.053Z,100.00
2022-09-10T01:44:43.168Z,100.00
2022-09-10T01:47:29.066Z,100.00
2022-09-10T01:50:03.846Z,100.00
2022-09-10T01:52:42.176Z,100.00
2022-09-10T01:55:20.711Z,100.00
2022-09-10T01:58:10.773Z,100.00
2022-09-10T02:00:47.271Z,100.00
2022-09-10T02:03:16.341Z,100.00
2022-09-10T02:05:48.631Z,100.00
2022-09-10T02:08:18.161Z,100.00
2022-09-10T02:11:02.034Z,100.00
2022-09-10T02:13:34.150Z,100.00
2022-09-10T02:16:34.368Z,100.00
2022-09-10T02:19:02.347Z,100.00
2022-09-10T02:21:30.871Z,100.00
2022-09-10T02:24:08.123Z,100.00
2022-09-10T02:26:38.086Z,100.00
2022-09-10T02:29:06.787Z,100.00
2022-09-10T02:31:33.366Z,100.00
2022-09-10T02:33:59.975Z,100.00
2022-09-10T02:36:28.310Z,100.00
2022-09-10T02:38:56.837Z,100.00
2022-09-10T02:41:25.947Z,100.00
2022-09-10T02:43:54.137Z,100.00
2022-09-10T02:46:21.056Z,100.00
2022-09-10T02:48:47.585Z,100.00
2022-09-10T02:51:14.054Z,100.00
2022-09-10T02:53:40.557Z,100.00
2022-09-10T02:56:08.604Z,100.00
2022-09-10T02:58:36.182Z,100.00
2022-09-10T03:01:12.120Z,100.00
2022-09-10T03:03:39.179Z,100.00
2022-09-10T03:06:05.745Z,100.00
2022-09-10T03:08:32.227Z,100.00
2022-09-10T03:10:59.830Z,100.00
2022-09-10T03:13:27.656Z,100.00
2022-09-10T03:15:56.240Z,100.00
2022-09-10T03:18:25.553Z,100.00
2022-09-10T03:20:52.911Z,100.00
2022-09-10T03:23:19.669Z,100.00
2022-09-10T03:25:49.597Z,100.00
2022-09-10T03:28:17.211Z,100.00
2022-09-10T03:30:43.838Z,100.00
2022-09-10T03:33:11.876Z,100.00
2022-09-10T03:35:40.317Z,100.00
2022-09-10T03:38:06.902Z,100.00
2022-09-10T03:40:34.126Z,100.00
2022-09-10T03:43:01.175Z,100.00
2022-09-10T03:45:28.636Z,100.00
2022-09-10T03:47:55.842Z,100.00
2022-09-10T03:50:22.393Z,100.00
2022-09-10T03:52:50.541Z,100.00
2022-09-10T03:55:17.926Z,100.00
2022-09-10T03:57:45.675Z,100.00
2022-09-10T04:00:14.501Z,100.00
2022-09-10T04:02:46.469Z,100.00
2022-09-10T04:05:13.681Z,100.00
2022-09-10T04:07:40.127Z,100.00
2022-09-10T04:10:07.074Z,100.00
2022-09-10T04:12:33.545Z,100.00
2022-09-10T04:15:01.827Z,100.00
2022-09-10T04:17:28.330Z,100.00
2022-09-10T04:19:54.972Z,100.00
2022-09-10T04:22:22.452Z,100.00
2022-09-10T04:24:49.745Z,100.00
2022-09-10T04:27:16.901Z,100.00
2022-09-10T04:29:44.026Z,100.00
2022-09-10T04:32:10.468Z,100.00
2022-09-10T04:34:36.968Z,100.00
2022-09-10T04:37:03.430Z,100.00
2022-09-10T04:39:31.513Z,100.00
2022-09-10T04:41:58.633Z,100.00
2022-09-10T04:44:26.364Z,100.00
2022-09-10T04:46:52.992Z,100.00
2022-09-10T04:49:19.612Z,100.00
2022-09-10T04:51:46.854Z,100.00
2022-09-10T04:54:14.555Z,100.00
2022-09-10T04:56:43.168Z,100.00
2022-09-10T04:59:10.802Z,100.00
2022-09-10T05:01:37.758Z,100.00
2022-09-10T05:04:05.104Z,100.00
2022-09-10T05:06:35.141Z,100.00
2022-09-10T05:09:03.733Z,100.00
2022-09-10T05:11:31.401Z,100.00
2022-09-10T05:13:58.341Z,100.00
2022-09-10T05:16:27.990Z,100.00
2022-09-10T05:18:54.822Z,100.00
2022-09-10T05:21:21.413Z,100.00
2022-09-10T05:23:48.442Z,100.00
2022-09-10T05:26:14.923Z,100.00
2022-09-10T05:28:42.586Z,100.00
2022-09-10T05:31:12.905Z,100.00
2022-09-10T05:33:40.849Z,100.00
2022-09-10T05:36:10.735Z,100.00
2022-09-10T05:38:40.099Z,100.00
2022-09-10T05:41:10.734Z,100.00
2022-09-10T05:43:41.912Z,100.00
2022-09-10T05:46:10.461Z,100.00
2022-09-10T05:48:41.766Z,100.00
2022-09-10T05:51:10.332Z,100.00
2022-09-10T05:53:38.252Z,100.00
2022-09-10T05:56:07.306Z,100.00
2022-09-10T05:58:35.100Z,100.00
2022-09-10T06:01:01.723Z,100.00
2022-09-10T06:03:28.417Z,99.25
2022-09-10T06:05:59.458Z,99.78
2022-09-10T06:08:30.453Z,98.18
2022-09-10T06:11:03.054Z,96.86
2022-09-10T06:13:35.296Z,100.00
2022-09-10T06:16:02.308Z,96.71
2022-09-10T06:18:28.990Z,98.02
2022-09-10T06:21:02.839Z,96.04
2022-09-10T06:23:31.285Z,94.70
2022-09-10T06:26:04.009Z,92.45
2022-09-10T06:28:32.516Z,91.31
2022-09-10T06:30:59.651Z,87.24
2022-09-10T06:33:26.264Z,87.68
2022-09-10T06:35:57.037Z,89.96
2022-09-10T06:38:24.806Z,90.76
2022-09-10T06:40:55.409Z,84.72
2022-09-10T06:43:23.502Z,84.35
2022-09-10T06:49:12.681Z,84.38
2022-09-10T06:51:42.498Z,82.65
2022-09-10T06:54:10.062Z,80.16
2022-09-10T06:56:37.261Z,79.78
2022-09-10T06:59:04.301Z,78.97
2022-09-10T07:01:38.200Z,78.71
2022-09-10T07:04:06.425Z,76.80
2022-09-10T07:06:34.753Z,76.24
2022-09-10T07:09:05.593Z,77.07
2022-09-10T07:11:41.198Z,71.96
2022-09-10T07:14:12.966Z,71.63
2022-09-10T07:16:44.345Z,68.40
2022-09-10T07:19:13.249Z,66.53
2022-09-10T07:21:43.216Z,66.53
2022-09-10T07:24:14.705Z,65.38
2022-09-10T07:27:11.091Z,61.46
2022-09-10T07:29:40.389Z,64.13
2022-09-10T07:32:13.464Z,59.97
2022-09-10T07:34:40.372Z,60.83
2022-09-10T07:37:07.582Z,58.23
2022-09-10T07:39:34.376Z,57.23
2022-09-10T07:42:02.614Z,56.70
2022-09-10T07:44:33.298Z,60.08
2022-09-10T07:47:03.357Z,63.81
2022-09-10T07:49:31.563Z,60.18
2022-09-10T07:52:00.251Z,61.31
2022-09-10T07:54:31.912Z,56.29
2022-09-10T07:56:59.897Z,55.78
2022-09-10T07:59:27.089Z,52.30
2022-09-10T08:02:01.433Z,54.15
2022-09-10T08:04:36.458Z,51.22
2022-09-10T08:07:05.742Z,55.33
2022-09-10T08:09:34.226Z,52.43
2022-09-10T08:12:02.321Z,53.43
2022-09-10T08:14:28.780Z,58.03
2022-09-10T08:16:55.935Z,57.55
2022-09-10T08:19:22.752Z,60.25
2022-09-10T08:21:51.148Z,58.66
2022-09-10T08:24:23.541Z,59.25
2022-09-10T08:26:50.615Z,55.87
2022-09-10T08:29:18.109Z,55.95
2022-09-10T08:31:44.696Z,55.42
2022-09-10T08:34:17.745Z,53.25
2022-09-10T08:36:50.549Z,52.63
2022-09-10T08:39:17.072Z,48.98
2022-09-10T08:41:52.673Z,51.13
2022-09-10T08:44:35.572Z,49.71
2022-09-10T08:47:19.867Z,49.09
2022-09-10T08:50:09.033Z,49.87
2022-09-10T08:52:41.505Z,49.57
2022-09-10T08:55:18.266Z,55.74
2022-09-10T08:57:48.947Z,51.26
2022-09-10T09:00:18.929Z,53.88
2022-09-10T09:02:57.733Z,53.78
2022-09-10T09:05:28.244Z,49.70
2022-09-10T09:07:58.586Z,52.88
2022-09-10T09:10:41.805Z,51.98
2022-09-10T09:13:16.047Z,51.92
2022-09-10T09:15:51.632Z,48.69
2022-09-10T09:18:45.235Z,49.70
2022-09-10T09:21:24.136Z,46.26
2022-09-10T09:24:14.207Z,42.58
2022-09-10T09:26:49.225Z,43.50
2022-09-10T09:29:20.397Z,41.64
2022-09-10T09:31:50.124Z,46.89
2022-09-10T09:34:23.974Z,41.06
2022-09-10T09:36:52.742Z,39.86
2022-09-10T09:39:27.706Z,39.07
2022-09-10T09:41:59.178Z,41.53
2022-09-10T09:44:35.305Z,39.80
2022-09-10T09:47:02.003Z,41.70
2022-09-10T09:49:29.096Z,38.82
2022-09-10T09:51:58.646Z,42.23
2022-09-10T09:54:57.154Z,41.38
2022-09-10T09:57:15.490Z,38.39
2022-09-10T09:59:41.976Z,36.36
2022-09-10T10:02:13.266Z,35.79
2022-09-10T10:04:42.441Z,34.12
2022-09-10T10:07:09.072Z,33.91
2022-09-10T10:09:41.452Z,33.39
2022-09-10T10:12:16.146Z,33.36
2022-09-10T10:14:42.855Z,33.24
2022-09-10T10:17:32.621Z,33.58
2022-09-10T10:20:10.229Z,36.15
2022-09-10T10:22:38.064Z,33.28
2022-09-10T10:25:06.310Z,34.65
2022-09-10T10:27:36.644Z,33.08
2022-09-10T10:30:07.265Z,31.37
2022-09-10T10:32:40.471Z,34.84
2022-09-10T10:35:10.165Z,33.57
2022-09-10T10:38:09.019Z,33.11
2022-09-10T10:40:38.318Z,32.35
2022-09-10T10:43:19.112Z,33.11
2022-09-10T10:45:56.141Z,34.00
2022-09-10T10:48:41.434Z,31.99
2022-09-10T10:51:14.891Z,31.80
2022-09-10T10:53:49.985Z,31.06
2022-09-10T10:56:29.787Z,33.36
2022-09-10T10:59:23.505Z,31.56
2022-09-10T11:02:01.099Z,29.42
2022-09-10T11:04:48.727Z,32.60
2022-09-10T11:07:15.223Z,28.99
2022-09-10T11:09:51.970Z,30.58
2022-09-10T11:12:20.653Z,31.78
2022-09-10T11:14:49.614Z,34.93
2022-09-10T11:17:19.838Z,29.49
2022-09-10T11:20:05.161Z,29.71
2022-09-10T11:22:41.779Z,30.07
2022-09-10T11:25:08.543Z,30.63
2022-09-10T11:27:38.260Z,30.93
2022-09-10T11:30:06.625Z,36.96
2022-09-10T11:32:39.845Z,33.03
2022-09-10T11:35:23.614Z,33.53
2022-09-10T11:37:52.823Z,32.98
2022-09-10T11:40:46.254Z,33.43
2022-09-10T11:43:39.803Z,32.95
2022-09-10T11:46:12.945Z,32.98
2022-09-10T11:48:42.585Z,34.81
2022-09-10T11:51:14.103Z,32.91
2022-09-10T11:53:41.116Z,34.38
2022-09-10T11:56:19.653Z,33.77
2022-09-10T11:58:52.237Z,36.00
2022-09-10T12:01:29.981Z,36.84
2022-09-10T12:04:07.440Z,36.94
2022-09-10T12:06:33.833Z,36.82
2022-09-10T12:09:00.850Z,36.22
2022-09-10T12:11:36.574Z,37.46
2022-09-10T12:14:07.454Z,38.04
2022-09-10T12:16:41.798Z,37.67
2022-09-10T12:19:18.338Z,36.83
2022-09-10T12:21:48.863Z,37.25
2022-09-10T12:24:25.665Z,37.52
2022-09-10T12:26:53.553Z,37.54
2022-09-10T12:29:46.041Z,35.65
2022-09-10T12:32:15.398Z,34.78
2022-09-10T12:34:41.825Z,34.88
2022-09-10T12:37:19.787Z,35.72
2022-09-10T12:39:46.640Z,34.21
2022-09-10T12:42:23.795Z,34.44
2022-09-10T12:44:50.354Z,34.63
2022-09-10T12:47:16.779Z,34.83
2022-09-10T12:49:47.740Z,34.99
2022-09-10T12:52:20.358Z,34.55
2022-09-10T12:54:52.651Z,35.34
2022-09-10T12:57:38.722Z,35.12
2022-09-10T13:00:38.122Z,34.03
2022-09-10T13:03:07.372Z,34.56
2022-09-10T13:05:39.798Z,35.08
2022-09-10T13:08:15.241Z,36.39
2022-09-10T13:10:43.494Z,36.55
2022-09-10T13:13:26.030Z,37.15
2022-09-10T13:15:53.577Z,37.23
2022-09-10T13:18:25.487Z,38.91
2022-09-10T13:20:52.319Z,38.80
2022-09-10T13:23:23.245Z,42.83
2022-09-10T13:25:50.894Z,42.62
2022-09-10T13:28:36.886Z,43.73
2022-09-10T13:31:03.676Z,43.76
2022-09-10T13:33:33.222Z,43.39
2022-09-10T13:36:02.631Z,44.22
2022-09-10T13:38:52.340Z,42.61
2022-09-10T13:41:35.125Z,43.24
2022-09-10T13:44:20.454Z,43.50
2022-09-10T13:46:50.358Z,44.88
2022-09-10T13:49:29.143Z,45.02
2022-09-10T13:51:57.435Z,44.78
2022-09-10T13:54:31.253Z,45.87
2022-09-10T13:57:01.103Z,46.47
2022-09-10T13:59:31.161Z,46.11
2022-09-10T14:01:59.460Z,44.02
2022-09-10T14:04:31.990Z,45.65
2022-09-10T14:07:21.709Z,45.39
2022-09-10T14:09:52.850Z,44.10
2022-09-10T14:12:23.357Z,45.73
2022-09-10T14:14:52.841Z,45.31
2022-09-10T14:17:31.526Z,44.97
2022-09-10T14:20:02.237Z,45.58
2022-09-10T14:22:29.222Z,46.69
2022-09-10T14:24:56.455Z,49.62
2022-09-10T14:27:26.929Z,50.06
2022-09-10T14:29:57.605Z,48.79
2022-09-10T14:32:36.250Z,51.65
2022-09-10T14:35:22.905Z,54.98
2022-09-10T14:37:50.412Z,56.21
2022-09-10T14:40:20.832Z,56.43
2022-09-10T14:42:48.829Z,57.12
2022-09-10T14:45:50.881Z,58.70
2022-09-10T14:48:37.010Z,61.44
2022-09-10T14:51:10.605Z,62.63
2022-09-10T14:53:37.443Z,64.15
2022-09-10T14:56:05.127Z,63.16
2022-09-10T14:58:31.782Z,64.34
2022-09-10T15:00:58.565Z,65.88
2022-09-10T15:03:25.122Z,66.97
2022-09-10T15:05:51.513Z,68.54
2022-09-10T15:08:17.933Z,68.96
2022-09-10T15:10:44.325Z,70.07
2022-09-10T15:13:14.869Z,70.35
2022-09-10T15:15:41.397Z,70.38
2022-09-10T15:18:14.630Z,71.54
2022-09-10T15:20:41.399Z,70.49
2022-09-10T15:23:07.822Z,71.53
2022-09-10T15:25:40.321Z,71.78
2022-09-10T15:28:09.822Z,71.38
2022-09-10T15:30:36.833Z,71.01
2022-09-10T15:33:06.739Z,70.56
2022-09-10T15:35:33.203Z,70.32
2022-09-10T15:38:01.625Z,69.51
2022-09-10T15:40:28.072Z,69.42
2022-09-10T15:42:54.668Z,68.82
2022-09-10T15:45:21.142Z,68.02
2022-09-10T15:47:47.599Z,67.38
2022-09-10T15:50:16.194Z,67.18
2022-09-10T15:52:44.816Z,67.65
2022-09-10T15:55:12.394Z,67.66
2022-09-10T15:57:40.319Z,62.98
2022-09-10T16:00:07.423Z,66.71
2022-09-10T16:02:34.359Z,67.29
2022-09-10T16:05:03.888Z,67.30
2022-09-10T16:07:30.446Z,66.58
2022-09-10T16:09:58.708Z,65.51
2022-09-10T16:12:28.152Z,65.36
2022-09-10T16:14:55.734Z,65.18
2022-09-10T16:17:22.150Z,64.56
2022-09-10T16:19:49.588Z,64.76
2022-09-10T16:22:20.400Z,62.96
2022-09-10T16:24:47.193Z,63.54
2022-09-10T16:27:13.634Z,63.58
2022-09-10T16:29:43.507Z,64.37
2022-09-10T16:32:10.811Z,66.18
2022-09-10T16:34:38.561Z,64.32
2022-09-10T16:37:05.259Z,63.57
2022-09-10T16:39:31.770Z,62.73
2022-09-10T16:41:58.198Z,63.11
2022-09-10T16:44:24.737Z,62.75
2022-09-10T16:46:51.253Z,64.70
2022-09-10T16:49:19.646Z,65.53
2022-09-10T16:51:47.269Z,66.70
2022-09-10T16:54:14.496Z,66.77
2022-09-10T16:56:42.521Z,68.44
2022-09-10T16:59:17.550Z,68.70
2022-09-10T17:01:45.017Z,70.00
2022-09-10T17:04:19.219Z,71.32
2022-09-10T17:06:47.219Z,70.95
2022-09-10T17:09:14.241Z,72.58
2022-09-10T17:11:40.869Z,73.54
2022-09-10T17:14:08.260Z,76.23
2022-09-10T17:16:39.149Z,77.02
2022-09-10T17:19:11.488Z,79.31
2022-09-10T17:21:38.705Z,80.81
2022-09-10T17:24:07.050Z,80.36
2022-09-10T17:26:33.989Z,79.60
2022-09-10T17:29:01.772Z,79.42
2022-09-10T17:31:29.532Z,78.77
2022-09-10T17:33:56.946Z,79.67
2022-09-10T17:36:25.233Z,76.47
2022-09-10T17:38:53.597Z,78.29
2022-09-10T17:41:20.938Z,76.39
2022-09-10T17:43:47.523Z,78.86
2022-09-10T17:46:15.484Z,80.87
2022-09-10T17:48:45.262Z,79.02
2022-09-10T17:51:13.411Z,75.71
2022-09-10T17:53:40.100Z,75.41
2022-09-10T17:56:07.942Z,74.92
2022-09-10T17:58:34.593Z,73.82
2022-09-10T18:01:02.460Z,73.90
2022-09-10T18:03:29.953Z,73.63
2022-09-10T18:05:57.099Z,73.30
2022-09-10T18:08:23.781Z,74.09
2022-09-10T18:10:50.838Z,72.85
2022-09-10T18:13:19.471Z,71.91
2022-09-10T18:15:49.349Z,72.43
2022-09-10T18:18:15.865Z,72.51
2022-09-10T18:20:42.959Z,71.45
2022-09-10T18:23:09.747Z,70.16
2022-09-10T18:25:36.178Z,71.30
2022-09-10T18:28:03.073Z,71.03
2022-09-10T18:30:29.658Z,71.10
2022-09-10T18:32:56.131Z,71.13
2022-09-10T18:35:23.007Z,69.59
2022-09-10T18:37:52.625Z,68.81
2022-09-10T18:40:19.537Z,69.84
2022-09-10T18:42:47.712Z,67.84
2022-09-10T18:45:14.354Z,69.74
2022-09-10T18:47:45.094Z,68.78
2022-09-10T18:50:13.228Z,66.45
2022-09-10T18:52:39.747Z,72.04
2022-09-10T18:55:06.445Z,74.42
2022-09-10T18:57:32.930Z,73.40
2022-09-10T18:59:59.740Z,70.86
2022-09-10T19:02:26.254Z,73.05
2022-09-10T19:05:11.676Z,74.63
2022-09-10T19:07:38.695Z,75.54
2022-09-10T19:10:06.989Z,76.74
2022-09-10T19:12:33.633Z,76.75
2022-09-10T19:15:00.438Z,76.62
2022-09-10T19:17:26.927Z,78.41
2022-09-10T19:19:53.340Z,77.83
2022-09-10T19:22:19.953Z,80.58
2022-09-10T19:24:55.723Z,80.46
2022-09-10T19:27:22.701Z,80.00
2022-09-10T19:29:49.875Z,79.84
2022-09-10T19:32:17.123Z,81.10
2022-09-10T19:34:43.765Z,83.08
2022-09-10T19:37:10.463Z,83.26
2022-09-10T19:39:37.092Z,82.41
2022-09-10T19:42:04.061Z,83.50
2022-09-10T19:44:30.497Z,85.10
2022-09-10T19:46:56.965Z,85.76
2022-09-10T19:49:23.475Z,86.56
2022-09-10T19:51:49.874Z,87.18
2022-09-10T19:54:16.437Z,88.07
2022-09-10T19:56:43.730Z,86.92
2022-09-10T19:59:10.395Z,84.51
2022-09-10T20:01:38.803Z,82.42
2022-09-10T20:04:06.732Z,85.54
2022-09-10T20:06:33.986Z,87.12
2022-09-10T20:09:00.942Z,87.69
2022-09-10T20:11:29.857Z,89.24
2022-09-10T20:13:57.376Z,90.78
2022-09-10T20:16:25.076Z,90.61
2022-09-10T20:18:52.010Z,87.29
2022-09-10T20:21:29.915Z,86.03
2022-09-10T20:23:56.619Z,87.98
2022-09-10T20:26:25.187Z,89.80
2022-09-10T20:28:53.567Z,89.16
2022-09-10T20:31:20.635Z,90.20
2022-09-10T20:33:49.190Z,90.51
2022-09-10T20:36:16.559Z,92.70
2022-09-10T20:38:43.473Z,94.14
2022-09-10T20:41:11.804Z,94.36
2022-09-10T20:43:38.414Z,94.00
2022-09-10T20:46:05.112Z,94.18
2022-09-10T20:48:31.690Z,94.74
2022-09-10T20:50:58.854Z,94.91
2022-09-10T20:53:26.515Z,93.12
2022-09-10T20:56:00.785Z,93.30
2022-09-10T20:58:27.242Z,92.09
2022-09-10T21:00:55.942Z,93.56
2022-09-10T21:03:23.287Z,93.75
2022-09-10T21:05:50.054Z,93.82
2022-09-10T21:08:16.494Z,93.88
2022-09-10T21:10:42.979Z,95.56
2022-09-10T21:13:09.689Z,94.13
2022-09-10T21:15:36.140Z,93.33
2022-09-10T21:18:02.557Z,92.76
2022-09-10T21:20:29.131Z,94.93
2022-09-10T21:22:56.281Z,96.12
2022-09-10T21:25:22.820Z,96.88
2022-09-10T21:27:49.341Z,97.20
2022-09-10T21:30:15.812Z,98.01
2022-09-10T21:32:42.246Z,97.42
2022-09-10T21:35:08.978Z,96.51
2022-09-10T21:37:35.673Z,96.09
2022-09-10T21:40:02.528Z,97.07
2022-09-10T21:42:28.974Z,93.76
2022-09-10T21:44:55.433Z,97.37
2022-09-10T21:47:21.891Z,98.01
2022-09-10T21:49:48.436Z,98.61
2022-09-10T21:52:14.884Z,99.84
2022-09-10T21:54:41.370Z,100.00
2022-09-10T21:57:10.909Z,100.00
2022-09-10T21:59:37.397Z,99.34
2022-09-10T22:02:04.312Z,98.38
2022-09-10T22:04:30.812Z,99.48
2022-09-10T22:06:57.639Z,98.47
2022-09-10T22:09:24.438Z,98.35
2022-09-10T22:11:54.034Z,100.00
2022-09-10T22:14:22.158Z,99.47
2022-09-10T22:16:48.657Z,100.00
2022-09-10T22:19:18.061Z,99.31
2022-09-10T22:21:44.893Z,99.94
2022-09-10T22:24:12.034Z,99.17
2022-09-10T22:26:43.336Z,99.15
2022-09-10T22:29:09.929Z,98.85
2022-09-10T22:31:36.517Z,98.04
2022-09-10T22:34:07.723Z,97.54
2022-09-10T22:36:35.605Z,96.97
2022-09-10T22:39:03.786Z,97.05
2022-09-10T22:41:31.634Z,97.81
2022-09-10T22:43:58.297Z,99.90
2022-09-10T22:46:27.893Z,100.00
2022-09-10T22:48:54.641Z,99.49
2022-09-10T22:51:25.372Z,100.00
2022-09-10T22:53:53.242Z,100.00
2022-09-10T22:56:22.165Z,99.08
2022-09-10T22:58:52.184Z,100.00
2022-09-10T23:01:20.390Z,99.66
2022-09-10T23:03:48.099Z,100.00
2022-09-10T23:06:16.121Z,100.00
2022-09-10T23:08:44.007Z,100.00
2022-09-10T23:11:11.329Z,100.00
2022-09-10T23:13:37.995Z,100.00
2022-09-10T23:16:12.011Z,100.00
2022-09-10T23:18:39.550Z,100.00
2022-09-10T23:21:06.476Z,99.48
2022-09-10T23:23:32.929Z,100.00
2022-09-10T23:26:03.497Z,99.21
2022-09-10T23:28:29.969Z,98.68
2022-09-10T23:31:06.324Z,98.73
2022-09-10T23:33:33.044Z,99.91
2022-09-10T23:35:59.485Z,99.25
2022-09-10T23:38:26.007Z,99.08
2022-09-10T23:40:52.742Z,100.00
2022-09-10T23:43:19.157Z,99.25
2022-09-10T23:45:45.582Z,99.73
2022-09-10T23:48:12.021Z,100.00
2022-09-10T23:50:38.440Z,100.00
2022-09-10T23:53:05.473Z,100.00
2022-09-10T23:55:36.171Z,100.00
2022-09-10T23:58:03.310Z,100.00
